Time;durP1;ratioP1;P1;durP2;ratioP2;P2;SDS_P1;SDS_P2;PMS_P1;PMS_P2;Temp;Humidity;BMP_temperature;BMP_pressure;BME280_temperature;BME280_humidity;BME280_pressure;Samples;Min_cycle;Max_cycle;Signal;HPM_P1;HPM_P2
2023/08/01 00:01:46;;;;;;;1.63;1.53;;;;;;;;;;5040487;28;20481;-79
2023/08/01 00:04:13;;;;;;;3.87;2.20;;;;;;;;;;5040529;28;20549;-78
2023/08/01 00:06:39;;;;;;;2.60;1.90;;;;;;;;;;5040594;28;20514;-77
2023/08/01 00:09:06;;;;;;;1.87;1.77;;;;;;;;;;5040065;28;20489;-78
2023/08/01 00:11:32;;;;;;;1.80;1.70;;;;;;;;;;5039897;28;20485;-79
2023/08/01 00:13:58;;;;;;;2.50;2.20;;;;;;;;;;5041771;28;20492;-80
2023/08/01 00:16:25;;;;;;;2.10;1.90;;;;;;;;;;5044037;28;20513;-79
2023/08/01 00:18:53;;;;;;;1.60;1.50;;;;;;;;;;5043761;28;20458;-79
2023/08/01 00:21:19;;;;;;;2.53;1.43;;;;;;;;;;5037376;28;20446;-80
2023/08/01 00:23:46;;;;;;;3.33;1.80;;;;;;;;;;5043616;28;20457;-79
2023/08/01 00:26:12;;;;;;;3.93;1.60;;;;;;;;;;5042601;28;20625;-79
2023/08/01 00:28:38;;;;;;;1.87;1.77;;;;;;;;;;5043053;28;20497;-79
2023/08/01 00:31:05;;;;;;;1.97;1.73;;;;;;;;;;5043408;28;20575;-79
2023/08/01 00:33:32;;;;;;;1.50;1.40;;;;;;;;;;5043155;28;20521;-79
2023/08/01 00:36:00;;;;;;;2.30;1.50;;;;;;;;;;5043369;28;20552;-79
2023/08/01 00:38:26;;;;;;;3.57;1.93;;;;;;;;;;5043537;28;20477;-79
2023/08/01 00:40:53;;;;;;;1.70;1.60;;;;;;;;;;5042829;28;20454;-79
2023/08/01 00:43:19;;;;;;;3.27;1.73;;;;;;;;;;5043410;28;20537;-79
2023/08/01 00:45:46;;;;;;;1.70;1.60;;;;;;;;;;5040486;28;20553;-79
2023/08/01 00:48:13;;;;;;;1.57;1.43;;;;;;;;;;5043173;28;21036;-79
2023/08/01 00:50:40;;;;;;;2.57;1.60;;;;;;;;;;5042957;28;20560;-78
2023/08/01 00:53:08;;;;;;;2.23;1.30;;;;;;;;;;5042889;28;20482;-78
2023/08/01 00:55:35;;;;;;;2.43;1.57;;;;;;;;;;5042660;28;20543;-78
2023/08/01 00:58:01;;;;;;;2.20;1.20;;;;;;;;;;5041827;28;21057;-79
2023/08/01 01:00:27;;;;;;;1.80;1.47;;;;;;;;;;5043068;28;20521;-78
2023/08/01 01:02:54;;;;;;;2.73;1.30;;;;;;;;;;5042717;28;20484;-78
2023/08/01 01:05:21;;;;;;;1.93;1.50;;;;;;;;;;5042628;28;20449;-78
2023/08/01 01:07:47;;;;;;;1.83;1.07;;;;;;;;;;5042436;28;20477;-77
2023/08/01 01:10:15;;;;;;;2.27;1.30;;;;;;;;;;5041087;28;20530;-79
2023/08/01 01:12:42;;;;;;;1.43;1.33;;;;;;;;;;5034777;28;20466;-79
2023/08/01 01:15:08;;;;;;;1.60;1.43;;;;;;;;;;5042175;28;20466;-78
2023/08/01 01:17:35;;;;;;;1.60;1.50;;;;;;;;;;5042218;28;20560;-79
2023/08/01 01:20:01;;;;;;;3.53;1.50;;;;;;;;;;5042399;28;20544;-79
2023/08/01 01:22:30;;;;;;;1.70;1.20;;;;;;;;;;5041722;28;20461;-78
2023/08/01 01:24:56;;;;;;;2.13;1.50;;;;;;;;;;5042207;28;20473;-78
2023/08/01 01:27:23;;;;;;;1.67;1.40;;;;;;;;;;5041642;28;20524;-78
2023/08/01 01:29:50;;;;;;;1.90;1.30;;;;;;;;;;5042540;28;20513;-78
2023/08/01 01:32:17;;;;;;;2.23;1.60;;;;;;;;;;5034733;28;20461;-79
2023/08/01 01:34:45;;;;;;;1.77;1.13;;;;;;;;;;5042624;28;20481;-79
2023/08/01 01:37:11;;;;;;;1.37;1.13;;;;;;;;;;5042597;28;20532;-78
2023/08/01 01:39:39;;;;;;;1.60;1.40;;;;;;;;;;5041905;28;20465;-77
2023/08/01 01:42:06;;;;;;;1.27;1.17;;;;;;;;;;5041697;28;20974;-78
2023/08/01 01:44:32;;;;;;;3.03;1.40;;;;;;;;;;5042612;28;20521;-79
2023/08/01 01:46:58;;;;;;;1.80;1.50;;;;;;;;;;5042123;28;20482;-80
2023/08/01 01:49:26;;;;;;;4.53;1.60;;;;;;;;;;5042342;28;21054;-79
2023/08/01 01:51:52;;;;;;;3.03;1.70;;;;;;;;;;5041555;28;20508;-79
2023/08/01 01:54:18;;;;;;;1.53;1.30;;;;;;;;;;5042304;28;20524;-79
2023/08/01 01:56:46;;;;;;;1.23;1.13;;;;;;;;;;5041505;28;20522;-79
2023/08/01 01:59:12;;;;;;;2.43;1.40;;;;;;;;;;5041823;28;20508;-79
2023/08/01 02:01:39;;;;;;;1.60;1.20;;;;;;;;;;5041901;28;20526;-79
2023/08/01 02:04:05;;;;;;;1.50;1.40;;;;;;;;;;5042271;28;20541;-79
2023/08/01 02:06:31;;;;;;;4.57;1.20;;;;;;;;;;5041608;28;20493;-78
2023/08/01 02:08:58;;;;;;;1.40;1.20;;;;;;;;;;5041509;28;20477;-79
2023/08/01 02:11:25;;;;;;;2.23;1.47;;;;;;;;;;5041379;28;20516;-79
2023/08/01 02:13:54;;;;;;;1.13;1.03;;;;;;;;;;5041712;28;20505;-79
2023/08/01 02:16:20;;;;;;;1.20;1.00;;;;;;;;;;5041196;28;20461;-79
2023/08/01 02:18:46;;;;;;;2.23;1.40;;;;;;;;;;5041221;28;20460;-79
2023/08/01 02:21:13;;;;;;;1.10;1.00;;;;;;;;;;5041628;28;20509;-79
2023/08/01 02:23:39;;;;;;;1.20;0.93;;;;;;;;;;5041459;28;20480;-79
2023/08/01 02:26:08;;;;;;;1.57;1.30;;;;;;;;;;5041009;28;20496;-79
2023/08/01 02:28:34;;;;;;;1.50;1.40;;;;;;;;;;5041067;28;20466;-79
2023/08/01 02:31:02;;;;;;;1.47;1.27;;;;;;;;;;5041351;28;20568;-79
2023/08/01 02:33:28;;;;;;;1.17;1.07;;;;;;;;;;5041610;28;20513;-79
2023/08/01 02:35:54;;;;;;;1.37;1.20;;;;;;;;;;5040851;28;20522;-79
2023/08/01 02:38:21;;;;;;;1.63;1.30;;;;;;;;;;5040095;28;20536;-79
2023/08/01 02:40:47;;;;;;;1.47;1.37;;;;;;;;;;5039264;28;20444;-79
2023/08/01 02:43:14;;;;;;;1.73;1.63;;;;;;;;;;5040583;28;20548;-79
2023/08/01 02:45:42;;;;;;;1.60;1.50;;;;;;;;;;5041430;28;20529;-79
2023/08/01 02:48:10;;;;;;;1.50;1.40;;;;;;;;;;5041363;28;20565;-79
2023/08/01 02:50:36;;;;;;;1.73;1.40;;;;;;;;;;5040536;28;20568;-79
2023/08/01 02:53:03;;;;;;;1.87;1.67;;;;;;;;;;5040859;28;20527;-79
2023/08/01 02:55:29;;;;;;;1.70;1.47;;;;;;;;;;5040732;28;20480;-78
2023/08/01 02:57:56;;;;;;;3.67;1.40;;;;;;;;;;5039979;28;20998;-79
2023/08/01 03:00:22;;;;;;;1.73;1.47;;;;;;;;;;5040938;28;20549;-80
2023/08/01 03:02:48;;;;;;;1.80;1.20;;;;;;;;;;5040884;28;20457;-80
2023/08/01 03:05:16;;;;;;;2.77;1.40;;;;;;;;;;5040875;28;20485;-79
2023/08/01 03:07:43;;;;;;;2.20;1.77;;;;;;;;;;5040740;28;20526;-80
2023/08/01 03:10:11;;;;;;;1.60;1.47;;;;;;;;;;5033696;28;20565;-80
2023/08/01 03:12:37;;;;;;;2.07;1.60;;;;;;;;;;5040050;28;20517;-80
2023/08/01 03:15:04;;;;;;;5.63;1.63;;;;;;;;;;5041061;28;20474;-80
2023/08/01 03:17:30;;;;;;;2.33;1.40;;;;;;;;;;5041205;28;21058;-80
2023/08/01 03:19:56;;;;;;;1.93;1.23;;;;;;;;;;5040755;28;20461;-79
2023/08/01 03:22:24;;;;;;;1.50;1.33;;;;;;;;;;5040815;28;20545;-80
2023/08/01 03:24:50;;;;;;;2.57;1.77;;;;;;;;;;5040263;28;20565;-79
2023/08/01 03:27:17;;;;;;;2.23;1.70;;;;;;;;;;5040644;28;20552;-79
2023/08/01 03:29:43;;;;;;;1.70;1.60;;;;;;;;;;5041176;28;20471;-79
2023/08/01 03:32:10;;;;;;;3.17;1.80;;;;;;;;;;5040701;28;20509;-79
2023/08/01 03:34:38;;;;;;;1.93;1.73;;;;;;;;;;5041144;28;20453;-79
2023/08/01 03:37:05;;;;;;;2.93;2.10;;;;;;;;;;5040678;28;20507;-79
2023/08/01 03:39:33;;;;;;;2.47;2.03;;;;;;;;;;5040545;28;20517;-79
2023/08/01 03:41:59;;;;;;;2.60;2.40;;;;;;;;;;5040076;28;21105;-78
2023/08/01 03:44:25;;;;;;;2.47;2.27;;;;;;;;;;5039572;28;20466;-79
2023/08/01 03:46:52;;;;;;;3.83;3.13;;;;;;;;;;5039953;28;20545;-79
2023/08/01 03:49:18;;;;;;;3.03;2.83;;;;;;;;;;5041754;28;20458;-78
2023/08/01 03:51:45;;;;;;;3.83;2.63;;;;;;;;;;5044304;28;20493;-79
2023/08/01 03:54:11;;;;;;;2.70;2.50;;;;;;;;;;5044715;28;20529;-79
2023/08/01 03:56:42;;;;;;;3.83;3.10;;;;;;;;;;5043100;28;21026;-79
2023/08/01 03:59:09;;;;;;;3.30;3.00;;;;;;;;;;5044131;28;20453;-79
2023/08/01 04:01:35;;;;;;;3.53;3.23;;;;;;;;;;5043677;28;20968;-79
2023/08/01 04:04:01;;;;;;;4.07;3.63;;;;;;;;;;5044146;28;20517;-79
2023/08/01 04:06:28;;;;;;;3.83;3.53;;;;;;;;;;5043684;28;20488;-79
2023/08/01 04:08:56;;;;;;;7.43;5.20;;;;;;;;;;5044000;28;20579;-79
2023/08/01 04:11:22;;;;;;;6.53;5.30;;;;;;;;;;5042963;28;20485;-79
2023/08/01 04:13:51;;;;;;;8.10;6.20;;;;;;;;;;5043882;28;20516;-78
2023/08/01 04:16:17;;;;;;;7.63;6.93;;;;;;;;;;5042863;28;20548;-78
2023/08/01 04:18:43;;;;;;;6.40;5.80;;;;;;;;;;5042052;28;20529;-79
2023/08/01 04:21:10;;;;;;;9.13;6.53;;;;;;;;;;5042458;28;20526;-79
2023/08/01 04:23:36;;;;;;;7.90;7.10;;;;;;;;;;5043539;28;20465;-79
2023/08/01 04:26:05;;;;;;;7.80;7.10;;;;;;;;;;5042332;28;20588;-79
2023/08/01 04:28:32;;;;;;;7.60;5.47;;;;;;;;;;5028786;28;20545;-79
2023/08/01 04:31:00;;;;;;;8.07;5.87;;;;;;;;;;5043137;28;20521;-79
2023/08/01 04:33:26;;;;;;;5.00;4.60;;;;;;;;;;5042884;28;20481;-79
2023/08/01 04:35:52;;;;;;;4.53;4.13;;;;;;;;;;5037806;28;20500;-79
2023/08/01 04:38:19;;;;;;;4.20;3.90;;;;;;;;;;5036295;28;20877;-79
2023/08/01 04:40:45;;;;;;;5.00;4.50;;;;;;;;;;5042170;28;20521;-79
2023/08/01 04:43:13;;;;;;;5.20;4.50;;;;;;;;;;5043221;28;20482;-79
2023/08/01 04:45:39;;;;;;;4.30;4.00;;;;;;;;;;5043428;28;20470;-79
2023/08/01 04:48:07;;;;;;;4.60;4.20;;;;;;;;;;5042977;28;20449;-79
2023/08/01 04:50:33;;;;;;;4.73;4.33;;;;;;;;;;5042634;28;20549;-79
2023/08/01 04:53:00;;;;;;;6.03;5.27;;;;;;;;;;5042757;28;21096;-79
2023/08/01 04:55:26;;;;;;;6.10;5.50;;;;;;;;;;5041827;28;20468;-79
2023/08/01 04:57:52;;;;;;;6.17;5.40;;;;;;;;;;5042181;28;20493;-79
2023/08/01 05:00:19;;;;;;;6.27;5.50;;;;;;;;;;5042791;28;20699;-79
2023/08/01 05:02:45;;;;;;;5.60;4.90;;;;;;;;;;5042485;28;20485;-80
2023/08/01 05:05:13;;;;;;;8.23;5.73;;;;;;;;;;5043092;28;20509;-79
2023/08/01 05:07:39;;;;;;;8.27;6.13;;;;;;;;;;5042285;28;20457;-79
2023/08/01 05:10:06;;;;;;;10.03;6.60;;;;;;;;;;5042489;28;20513;-79
2023/08/01 05:12:32;;;;;;;8.27;6.33;;;;;;;;;;5041488;28;20524;-80
2023/08/01 05:14:59;;;;;;;9.27;5.77;;;;;;;;;;5034874;28;20728;-80
2023/08/01 05:17:25;;;;;;;9.50;6.30;;;;;;;;;;5040655;28;20486;-81
2023/08/01 05:19:52;;;;;;;10.47;6.37;;;;;;;;;;5042362;28;20446;-81
2023/08/01 05:22:19;;;;;;;10.20;5.87;;;;;;;;;;5035102;28;20466;-79
2023/08/01 05:24:46;;;;;;;7.73;6.53;;;;;;;;;;5041678;28;20915;-81
2023/08/01 05:27:12;;;;;;;8.00;5.50;;;;;;;;;;5041734;28;20626;-80
2023/08/01 05:29:39;;;;;;;9.73;6.77;;;;;;;;;;5041618;28;20485;-81
2023/08/01 05:32:05;;;;;;;8.60;6.03;;;;;;;;;;5041265;28;20538;-81
2023/08/01 05:34:31;;;;;;;10.30;6.73;;;;;;;;;;5042063;28;20473;-82
2023/08/01 05:36:58;;;;;;;11.73;6.13;;;;;;;;;;5042910;28;20497;-81
2023/08/01 05:39:26;;;;;;;9.00;6.10;;;;;;;;;;5041694;28;20458;-80
2023/08/01 05:41:52;;;;;;;13.30;6.77;;;;;;;;;;5041680;28;20454;-80
2023/08/01 05:44:18;;;;;;;7.53;5.50;;;;;;;;;;5041724;28;20548;-80
2023/08/01 05:46:45;;;;;;;12.17;6.10;;;;;;;;;;5041277;28;20464;-80
2023/08/01 05:49:11;;;;;;;8.80;6.20;;;;;;;;;;5041430;28;20556;-80
2023/08/01 05:51:38;;;;;;;9.37;6.40;;;;;;;;;;5041789;28;20899;-80
2023/08/01 05:54:04;;;;;;;11.30;6.10;;;;;;;;;;5030909;28;20501;-80
2023/08/01 05:56:32;;;;;;;8.60;6.80;;;;;;;;;;5042156;28;20492;-79
2023/08/01 05:58:58;;;;;;;12.63;7.00;;;;;;;;;;5041131;28;20514;-80
2023/08/01 06:01:25;;;;;;;11.03;6.00;;;;;;;;;;5042783;28;20529;-85
2023/08/01 06:03:51;;;;;;;8.43;6.20;;;;;;;;;;5039058;28;20480;-82
2023/08/01 06:06:17;;;;;;;9.73;6.30;;;;;;;;;;5042127;28;20541;-82
2023/08/01 06:08:44;;;;;;;8.27;6.70;;;;;;;;;;5040894;28;21301;-81
2023/08/01 06:11:10;;;;;;;14.10;7.40;;;;;;;;;;5041169;28;20457;-81
2023/08/01 06:13:38;;;;;;;9.10;6.73;;;;;;;;;;5041464;28;20561;-82
2023/08/01 06:16:05;;;;;;;8.03;5.90;;;;;;;;;;5041956;28;20460;-82
2023/08/01 06:18:31;;;;;;;10.63;6.93;;;;;;;;;;5042111;28;20540;-82
2023/08/01 06:20:58;;;;;;;11.53;7.50;;;;;;;;;;5041655;28;20517;-82
2023/08/01 06:23:24;;;;;;;9.90;7.30;;;;;;;;;;5040947;28;20484;-83
2023/08/01 06:25:51;;;;;;;10.50;7.80;;;;;;;;;;5041496;28;20489;-77
2023/08/01 06:28:17;;;;;;;12.07;8.23;;;;;;;;;;5040535;28;20484;-76
2023/08/01 06:30:46;;;;;;;14.67;8.30;;;;;;;;;;5042472;28;20486;-78
2023/08/01 06:33:12;;;;;;;9.63;8.43;;;;;;;;;;5040987;28;20584;-78
2023/08/01 06:35:38;;;;;;;15.87;7.97;;;;;;;;;;5031783;28;20919;-82
2023/08/01 06:38:05;;;;;;;12.13;7.57;;;;;;;;;;5036653;28;20458;-83
2023/08/01 06:40:31;;;;;;;14.20;7.80;;;;;;;;;;5040811;28;20529;-86
2023/08/01 06:42:58;;;;;;;13.20;7.67;;;;;;;;;;5040084;28;20602;-85
2023/08/01 06:45:24;;;;;;;16.30;8.20;;;;;;;;;;5038684;28;20485;-84
2023/08/01 06:47:52;;;;;;;17.27;8.50;;;;;;;;;;5040403;28;20458;-82
2023/08/01 06:50:18;;;;;;;10.33;8.20;;;;;;;;;;5039481;28;20549;-83
2023/08/01 06:52:45;;;;;;;9.90;8.07;;;;;;;;;;5040014;28;20544;-83
2023/08/01 06:55:11;;;;;;;12.07;8.33;;;;;;;;;;5040039;28;20488;-83
2023/08/01 06:57:37;;;;;;;9.57;7.10;;;;;;;;;;5037921;28;20508;-82
2023/08/01 07:00:04;;;;;;;11.90;7.50;;;;;;;;;;5040208;28;20560;-83
2023/08/01 07:02:31;;;;;;;9.70;6.90;;;;;;;;;;5035537;28;20485;-82
2023/08/01 07:04:59;;;;;;;13.13;7.17;;;;;;;;;;5040467;28;20465;-84
2023/08/01 07:07:25;;;;;;;12.17;7.90;;;;;;;;;;5038269;28;20498;-82
2023/08/01 07:09:51;;;;;;;9.03;6.90;;;;;;;;;;5040079;28;20470;-82
2023/08/01 07:12:18;;;;;;;15.03;7.73;;;;;;;;;;5039807;28;21096;-82
2023/08/01 07:14:44;;;;;;;16.50;8.50;;;;;;;;;;5039663;28;20517;-82
2023/08/01 07:17:11;;;;;;;12.70;7.03;;;;;;;;;;5039303;28;20561;-82
2023/08/01 07:19:37;;;;;;;9.63;6.90;;;;;;;;;;5040484;28;21012;-82
2023/08/01 07:22:05;;;;;;;7.90;6.40;;;;;;;;;;5040832;28;20480;-81
2023/08/01 07:24:31;;;;;;;7.37;5.53;;;;;;;;;;5044112;28;20552;-82
2023/08/01 07:26:58;;;;;;;7.60;5.83;;;;;;;;;;5042002;28;20561;-83
2023/08/01 07:29:24;;;;;;;6.60;4.10;;;;;;;;;;5043901;28;20485;-83
2023/08/01 07:31:50;;;;;;;6.53;4.17;;;;;;;;;;5041273;28;20486;-83
2023/08/01 07:34:17;;;;;;;6.77;4.40;;;;;;;;;;5044252;28;20449;-83
2023/08/01 07:36:43;;;;;;;8.87;4.23;;;;;;;;;;5044141;28;20485;-83
2023/08/01 07:39:11;;;;;;;5.23;4.07;;;;;;;;;;5043509;28;20457;-82
2023/08/01 07:41:37;;;;;;;8.50;5.47;;;;;;;;;;5043155;28;21274;-85
2023/08/01 07:44:04;;;;;;;6.10;4.90;;;;;;;;;;5043810;28;20481;-84
2023/08/01 07:46:30;;;;;;;5.80;4.53;;;;;;;;;;5043650;28;20506;-85
2023/08/01 07:48:57;;;;;;;8.10;4.77;;;;;;;;;;5043950;28;20450;-85
2023/08/01 07:51:23;;;;;;;7.07;5.23;;;;;;;;;;5043084;28;20453;-81
2023/08/01 07:53:51;;;;;;;8.17;5.40;;;;;;;;;;5043734;28;20501;-80
2023/08/01 07:56:19;;;;;;;8.77;5.60;;;;;;;;;;5044033;28;20500;-80
2023/08/01 07:58:45;;;;;;;6.27;4.37;;;;;;;;;;5043300;28;20473;-81
2023/08/01 08:01:12;;;;;;;7.37;4.13;;;;;;;;;;5039043;28;20537;-82
2023/08/01 08:03:38;;;;;;;5.20;4.20;;;;;;;;;;5042812;28;20553;-82
2023/08/01 08:06:05;;;;;;;8.43;4.00;;;;;;;;;;5039444;28;20461;-81
2023/08/01 08:08:33;;;;;;;5.00;3.83;;;;;;;;;;5042946;28;20477;-80
2023/08/01 08:11:00;;;;;;;6.60;4.57;;;;;;;;;;5042239;28;20477;-82
2023/08/01 08:13:28;;;;;;;8.07;4.20;;;;;;;;;;5041250;28;20516;-80
2023/08/01 08:15:56;;;;;;;8.63;4.10;;;;;;;;;;5041668;28;20544;-79
2023/08/01 08:18:23;;;;;;;6.90;4.37;;;;;;;;;;5043431;28;20449;-81
2023/08/01 08:20:49;;;;;;;7.10;4.87;;;;;;;;;;5042655;28;20457;-79
2023/08/01 08:23:15;;;;;;;6.50;4.47;;;;;;;;;;5043599;28;20476;-81
2023/08/01 08:25:44;;;;;;;5.20;4.10;;;;;;;;;;5043086;28;20536;-81
2023/08/01 08:28:10;;;;;;;6.43;4.27;;;;;;;;;;5039791;28;20485;-80
2023/08/01 08:30:38;;;;;;;8.63;4.47;;;;;;;;;;5040640;28;20468;-79
2023/08/01 08:33:06;;;;;;;9.07;4.33;;;;;;;;;;5043281;28;20486;-79
2023/08/01 08:35:33;;;;;;;5.20;3.47;;;;;;;;;;5041320;28;20462;-79
2023/08/01 08:37:59;;;;;;;6.43;3.77;;;;;;;;;;5042511;28;20469;-79
2023/08/01 08:40:26;;;;;;;7.07;3.17;;;;;;;;;;5042409;28;20504;-79
2023/08/01 08:42:53;;;;;;;3.93;3.33;;;;;;;;;;5042079;28;20545;-79
2023/08/01 08:45:20;;;;;;;4.80;2.90;;;;;;;;;;5039000;28;20516;-78
2023/08/01 08:47:50;;;;;;;5.70;3.10;;;;;;;;;;5042658;28;20464;-79
2023/08/01 08:50:16;;;;;;;4.20;2.67;;;;;;;;;;5042493;28;20890;-78
2023/08/01 08:52:43;;;;;;;5.00;3.00;;;;;;;;;;5041703;28;20522;-80
2023/08/01 08:55:09;;;;;;;9.10;3.37;;;;;;;;;;5042383;28;20485;-79
2023/08/01 08:57:36;;;;;;;5.67;2.97;;;;;;;;;;5042336;28;20516;-80
2023/08/01 09:00:04;;;;;;;6.23;2.60;;;;;;;;;;5041872;28;20485;-79
2023/08/01 09:02:31;;;;;;;4.50;2.80;;;;;;;;;;5042830;28;20466;-79
2023/08/01 09:04:59;;;;;;;7.10;3.17;;;;;;;;;;5042681;28;20590;-79
2023/08/01 09:07:28;;;;;;;8.70;3.03;;;;;;;;;;5036300;28;20477;-79
2023/08/01 09:09:54;;;;;;;5.13;2.90;;;;;;;;;;5042097;28;20472;-80
2023/08/01 09:12:21;;;;;;;5.23;2.60;;;;;;;;;;5042281;28;20486;-80
2023/08/01 09:14:49;;;;;;;6.83;3.20;;;;;;;;;;5040822;28;20532;-80
2023/08/01 09:17:18;;;;;;;4.07;2.90;;;;;;;;;;5042750;28;20474;-80
2023/08/01 09:19:44;;;;;;;4.80;2.70;;;;;;;;;;5042352;28;20468;-80
2023/08/01 09:22:12;;;;;;;3.73;2.30;;;;;;;;;;5042007;28;20527;-80
2023/08/01 09:24:39;;;;;;;5.33;2.13;;;;;;;;;;5042079;28;20450;-80
2023/08/01 09:27:06;;;;;;;2.77;2.17;;;;;;;;;;5041929;28;20493;-80
2023/08/01 09:29:32;;;;;;;2.73;1.47;;;;;;;;;;5041765;28;20508;-81
2023/08/01 09:31:59;;;;;;;4.47;2.03;;;;;;;;;;5041988;28;20540;-80
2023/08/01 09:34:26;;;;;;;4.80;2.63;;;;;;;;;;5041634;28;20551;-80
2023/08/01 09:36:58;;;;;;;4.13;3.00;;;;;;;;;;5041483;28;20553;-80
2023/08/01 09:39:26;;;;;;;6.00;3.77;;;;;;;;;;5042211;28;20497;-80
2023/08/01 09:41:56;;;;;;;5.10;3.60;;;;;;;;;;5041580;28;20488;-80
2023/08/01 09:44:22;;;;;;;5.90;4.00;;;;;;;;;;5037182;28;20850;-81
2023/08/01 09:46:55;;;;;;;5.83;3.83;;;;;;;;;;5040337;28;20978;-80
2023/08/01 09:49:22;;;;;;;8.53;4.93;;;;;;;;;;5041520;28;20547;-81
2023/08/01 09:51:49;;;;;;;5.97;5.37;;;;;;;;;;5039122;28;20486;-79
2023/08/01 09:54:16;;;;;;;8.20;5.00;;;;;;;;;;5041756;28;21038;-79
2023/08/01 09:56:45;;;;;;;7.10;5.20;;;;;;;;;;5038071;28;20481;-79
2023/08/01 09:59:11;;;;;;;9.03;6.43;;;;;;;;;;5040662;28;20462;-79
2023/08/01 10:01:38;;;;;;;11.67;6.40;;;;;;;;;;5041945;28;20453;-80
2023/08/01 10:04:06;;;;;;;7.63;6.20;;;;;;;;;;5040239;28;20484;-79
2023/08/01 10:06:34;;;;;;;7.20;6.30;;;;;;;;;;5040921;28;20496;-79
2023/08/01 10:09:00;;;;;;;9.70;6.33;;;;;;;;;;5041357;28;20807;-79
2023/08/01 10:11:27;;;;;;;7.13;6.40;;;;;;;;;;5041687;28;20817;-79
2023/08/01 10:13:55;;;;;;;8.90;7.00;;;;;;;;;;5033548;28;20808;-79
2023/08/01 10:16:22;;;;;;;11.43;6.87;;;;;;;;;;5041285;28;20545;-79
2023/08/01 10:18:49;;;;;;;12.90;5.90;;;;;;;;;;5041514;28;20473;-79
2023/08/01 10:21:17;;;;;;;8.13;6.73;;;;;;;;;;5040590;28;20481;-79
2023/08/01 10:23:44;;;;;;;8.90;6.27;;;;;;;;;;5041279;28;20537;-79
2023/08/01 10:26:12;;;;;;;12.17;7.10;;;;;;;;;;5035710;28;20560;-79
2023/08/01 10:28:39;;;;;;;12.37;9.00;;;;;;;;;;5040204;28;20485;-80
2023/08/01 10:31:13;;;;;;;8.30;7.43;;;;;;;;;;5040967;28;20524;-80
2023/08/01 10:33:40;;;;;;;12.60;7.07;;;;;;;;;;5040948;28;20517;-80
2023/08/01 10:36:13;;;;;;;10.00;6.80;;;;;;;;;;5040467;28;20743;-79
2023/08/01 10:38:45;;;;;;;8.43;5.47;;;;;;;;;;5041098;28;20486;-79
2023/08/01 10:41:19;;;;;;;12.43;6.50;;;;;;;;;;5038489;28;20460;-78
2023/08/01 10:43:45;;;;;;;10.63;6.20;;;;;;;;;;5039143;28;20902;-79
2023/08/01 10:46:13;;;;;;;7.17;6.47;;;;;;;;;;5039815;28;20557;-78
2023/08/01 10:48:48;;;;;;;8.97;6.20;;;;;;;;;;5041009;28;20557;-79
2023/08/01 10:51:14;;;;;;;8.97;7.10;;;;;;;;;;5039012;28;20492;-80
2023/08/01 10:53:41;;;;;;;9.87;7.20;;;;;;;;;;5040838;28;20533;-80
2023/08/01 10:56:08;;;;;;;7.73;6.10;;;;;;;;;;5039976;28;20477;-80
2023/08/01 10:58:35;;;;;;;8.07;6.50;;;;;;;;;;5038797;28;20470;-81
2023/08/01 11:01:01;;;;;;;8.10;5.70;;;;;;;;;;5039592;28;20973;-81
2023/08/01 11:03:36;;;;;;;7.77;5.83;;;;;;;;;;5040003;28;21229;-81
2023/08/01 11:06:03;;;;;;;9.23;6.40;;;;;;;;;;5039819;28;20452;-81
2023/08/01 11:08:35;;;;;;;10.97;5.40;;;;;;;;;;5040245;28;21034;-80
2023/08/01 11:11:01;;;;;;;8.60;5.33;;;;;;;;;;5040089;28;20449;-80
2023/08/01 11:13:28;;;;;;;9.33;5.73;;;;;;;;;;5040452;28;20486;-80
2023/08/01 11:15:56;;;;;;;7.27;4.87;;;;;;;;;;5041005;28;20460;-80
2023/08/01 11:18:22;;;;;;;7.07;4.53;;;;;;;;;;5040862;28;20466;-80
2023/08/01 11:20:50;;;;;;;8.27;4.83;;;;;;;;;;5040964;28;21048;-79
2023/08/01 11:23:16;;;;;;;8.83;5.30;;;;;;;;;;5041132;28;20485;-80
2023/08/01 11:25:45;;;;;;;8.10;4.67;;;;;;;;;;5037739;28;20492;-80
2023/08/01 11:28:12;;;;;;;11.37;4.50;;;;;;;;;;5034310;28;20516;-81
2023/08/01 11:30:39;;;;;;;5.60;4.30;;;;;;;;;;5039348;28;20537;-82
2023/08/01 11:33:14;;;;;;;4.83;3.80;;;;;;;;;;5038340;28;21020;-82
2023/08/01 11:35:40;;;;;;;5.63;3.80;;;;;;;;;;5035929;28;20492;-81
2023/08/01 11:38:08;;;;;;;7.57;4.57;;;;;;;;;;5038441;28;20469;-82
2023/08/01 11:40:35;;;;;;;8.10;4.17;;;;;;;;;;5035008;28;20609;-82
2023/08/01 11:43:01;;;;;;;10.60;4.80;;;;;;;;;;5034701;28;20489;-82
2023/08/01 11:45:28;;;;;;;5.60;3.77;;;;;;;;;;5038900;28;20469;-82
2023/08/01 11:47:54;;;;;;;8.03;4.10;;;;;;;;;;5039477;28;20484;-83
2023/08/01 11:50:24;;;;;;;5.50;4.00;;;;;;;;;;5034209;28;20580;-82
2023/08/01 11:52:51;;;;;;;4.97;4.00;;;;;;;;;;5039620;28;20434;-83
2023/08/01 11:55:23;;;;;;;7.47;3.30;;;;;;;;;;5035499;28;20546;-82
2023/08/01 11:57:56;;;;;;;4.10;3.43;;;;;;;;;;5035052;28;20461;-82
2023/08/01 12:00:23;;;;;;;6.33;3.73;;;;;;;;;;5039333;28;20534;-83
2023/08/01 12:02:50;;;;;;;4.27;3.40;;;;;;;;;;5021663;28;20503;-83
2023/08/01 12:05:21;;;;;;;7.13;3.70;;;;;;;;;;5038456;28;20513;-82
2023/08/01 12:07:48;;;;;;;5.63;3.77;;;;;;;;;;5033069;28;20502;-82
2023/08/01 12:10:14;;;;;;;6.27;4.07;;;;;;;;;;5028930;28;20526;-82
2023/08/01 12:12:45;;;;;;;6.47;3.77;;;;;;;;;;5039165;28;20478;-82
2023/08/01 12:15:12;;;;;;;5.43;3.37;;;;;;;;;;5041351;28;20549;-82
2023/08/01 12:17:38;;;;;;;3.53;2.83;;;;;;;;;;5039568;28;21334;-83
2023/08/01 12:20:05;;;;;;;4.40;2.97;;;;;;;;;;5042966;28;20477;-83
2023/08/01 12:22:32;;;;;;;5.50;3.07;;;;;;;;;;5043161;28;20442;-82
2023/08/01 12:24:58;;;;;;;4.60;3.67;;;;;;;;;;5040471;28;21149;-82
2023/08/01 12:27:25;;;;;;;5.10;2.97;;;;;;;;;;5042170;28;20478;-82
2023/08/01 12:29:52;;;;;;;4.10;2.97;;;;;;;;;;5042300;28;20450;-81
2023/08/01 12:32:19;;;;;;;7.43;3.10;;;;;;;;;;5042604;28;20899;-82
2023/08/01 12:34:45;;;;;;;4.57;2.90;;;;;;;;;;5041342;28;20517;-81
2023/08/01 12:37:12;;;;;;;5.40;3.20;;;;;;;;;;5042208;28;20481;-81
2023/08/01 12:39:38;;;;;;;4.37;3.00;;;;;;;;;;5040175;28;20493;-82
2023/08/01 12:42:05;;;;;;;4.90;3.00;;;;;;;;;;5038736;28;20510;-81
2023/08/01 12:44:31;;;;;;;7.60;2.90;;;;;;;;;;5041514;28;20433;-79
2023/08/01 12:46:59;;;;;;;5.40;3.40;;;;;;;;;;5040190;28;20537;-79
2023/08/01 12:49:25;;;;;;;6.40;3.03;;;;;;;;;;5035978;28;20541;-81
2023/08/01 12:51:52;;;;;;;4.73;3.37;;;;;;;;;;5041558;28;20546;-81
2023/08/01 12:54:18;;;;;;;5.43;3.50;;;;;;;;;;5043007;28;20521;-80
2023/08/01 12:56:45;;;;;;;7.83;3.63;;;;;;;;;;5043506;28;20450;-81
2023/08/01 12:59:11;;;;;;;7.30;3.13;;;;;;;;;;5043071;28;20485;-81
2023/08/01 13:01:38;;;;;;;4.97;3.00;;;;;;;;;;5043059;28;20462;-81
2023/08/01 13:04:06;;;;;;;5.30;3.30;;;;;;;;;;5043990;28;20454;-80
2023/08/01 13:06:32;;;;;;;6.00;2.93;;;;;;;;;;5043426;28;20449;-80
2023/08/01 13:08:59;;;;;;;5.20;3.10;;;;;;;;;;5040440;28;20450;-80
2023/08/01 13:11:25;;;;;;;6.67;4.00;;;;;;;;;;5041995;28;20457;-77
2023/08/01 13:13:52;;;;;;;3.77;2.67;;;;;;;;;;5041846;28;20978;-80
2023/08/01 13:16:18;;;;;;;4.93;2.80;;;;;;;;;;5041699;28;20496;-83
2023/08/01 13:18:46;;;;;;;4.40;2.70;;;;;;;;;;5040991;28;20537;-81
2023/08/01 13:21:14;;;;;;;2.93;2.40;;;;;;;;;;5041101;28;20517;-81
2023/08/01 13:23:41;;;;;;;6.10;2.43;;;;;;;;;;5037232;28;20470;-80
2023/08/01 13:26:07;;;;;;;2.97;2.30;;;;;;;;;;5042403;28;20528;-79
2023/08/01 13:28:33;;;;;;;3.23;2.47;;;;;;;;;;5042488;28;20677;-80
2023/08/01 13:31:00;;;;;;;6.67;2.60;;;;;;;;;;5042562;28;20454;-80
2023/08/01 13:33:26;;;;;;;4.57;2.60;;;;;;;;;;5043632;28;20488;-81
2023/08/01 13:35:53;;;;;;;3.30;2.03;;;;;;;;;;5043751;28;20525;-82
2023/08/01 13:38:21;;;;;;;4.77;2.20;;;;;;;;;;5043018;28;20453;-81
2023/08/01 13:40:48;;;;;;;5.80;2.40;;;;;;;;;;5041900;28;20458;-80
2023/08/01 13:43:14;;;;;;;5.57;2.43;;;;;;;;;;5042500;28;20482;-80
2023/08/01 13:45:41;;;;;;;4.77;2.90;;;;;;;;;;5043284;28;20442;-81
2023/08/01 13:48:07;;;;;;;5.60;2.23;;;;;;;;;;5043224;28;20453;-81
2023/08/01 13:50:34;;;;;;;4.80;2.60;;;;;;;;;;5042699;28;20501;-83
2023/08/01 13:53:00;;;;;;;4.53;2.10;;;;;;;;;;5042804;28;20518;-82
2023/08/01 13:55:28;;;;;;;6.63;2.67;;;;;;;;;;5042074;28;20565;-82
2023/08/01 13:57:54;;;;;;;3.70;2.00;;;;;;;;;;5041764;28;20482;-81
2023/08/01 14:00:21;;;;;;;3.70;2.03;;;;;;;;;;5042178;28;20537;-81
2023/08/01 14:02:49;;;;;;;4.20;2.93;;;;;;;;;;5043232;28;20852;-82
2023/08/01 14:05:16;;;;;;;4.30;2.37;;;;;;;;;;5042848;28;20457;-80
2023/08/01 14:07:42;;;;;;;4.40;2.40;;;;;;;;;;5042116;28;20488;-80
2023/08/01 14:10:09;;;;;;;3.50;1.70;;;;;;;;;;5042622;28;20493;-81
2023/08/01 14:12:37;;;;;;;2.53;2.00;;;;;;;;;;5042653;28;20546;-81
2023/08/01 14:15:04;;;;;;;6.77;3.03;;;;;;;;;;5043087;28;20505;-80
2023/08/01 14:17:30;;;;;;;4.17;2.40;;;;;;;;;;5041549;28;20450;-82
2023/08/01 14:19:57;;;;;;;3.50;2.43;;;;;;;;;;5042360;28;20594;-81
2023/08/01 14:22:23;;;;;;;6.03;2.10;;;;;;;;;;5042018;28;20460;-80
2023/08/01 14:24:50;;;;;;;4.60;2.20;;;;;;;;;;5041671;28;20457;-80
2023/08/01 14:27:16;;;;;;;6.00;2.30;;;;;;;;;;5041479;28;20555;-80
2023/08/01 14:29:44;;;;;;;3.70;2.30;;;;;;;;;;5037952;28;20965;-80
2023/08/01 14:32:11;;;;;;;4.40;2.90;;;;;;;;;;5041275;28;20465;-81
2023/08/01 14:34:38;;;;;;;4.07;2.00;;;;;;;;;;5041751;28;21476;-80
2023/08/01 14:37:04;;;;;;;7.97;2.63;;;;;;;;;;5042085;28;20450;-81
2023/08/01 14:39:31;;;;;;;4.37;2.77;;;;;;;;;;5041306;28;20501;-82